createdAt,value
2022-10-23T00:00:22.098Z,95902.50
2022-10-23T00:01:26.477Z,95909.94
2022-10-23T00:02:30.640Z,95901.72
2022-10-23T00:03:32.479Z,95897.41
2022-10-23T00:04:35.372Z,95893.91
2022-10-23T00:05:40.529Z,95901.38
2022-10-23T00:06:44.558Z,95895.13
2022-10-23T00:07:50.090Z,95897.09
2022-10-23T00:08:53.159Z,95892.81
2022-10-23T00:09:55.045Z,95894.03
2022-10-23T00:10:58.020Z,95895.97
2022-10-23T00:11:59.948Z,95885.00
2022-10-23T00:13:02.845Z,95886.56
2022-10-23T00:14:07.517Z,95890.47
2022-10-23T00:15:11.129Z,95895.19
2022-10-23T00:16:13.430Z,95890.16
2022-10-23T00:17:16.308Z,95893.34
2022-10-23T00:18:19.510Z,95889.03
2022-10-23T00:19:22.420Z,95901.56
2022-10-23T00:20:24.292Z,95896.06
2022-10-23T00:21:27.775Z,95897.25
2022-10-23T00:22:29.578Z,95887.50
2022-10-23T00:23:32.412Z,95893.00
2022-10-23T00:24:34.452Z,95885.97
2022-10-23T00:25:38.923Z,95894.19
2022-10-23T00:26:41.871Z,95891.47
2022-10-23T00:27:43.992Z,95889.91
2022-10-23T00:28:48.990Z,95890.66
2022-10-23T00:29:51.522Z,95895.38
2022-10-23T00:30:54.459Z,95887.56
2022-10-23T00:31:56.285Z,95891.13
2022-10-23T00:32:59.243Z,95889.56
2022-10-23T00:34:04.126Z,95883.31
2022-10-23T00:35:07.383Z,95879.03
2022-10-23T00:36:12.144Z,95890.00
2022-10-23T00:37:15.045Z,95882.97
2022-10-23T00:38:16.837Z,95887.69
2022-10-23T00:39:19.639Z,95891.59
2022-10-23T00:40:21.733Z,95889.31
2022-10-23T00:41:27.984Z,95884.59
2022-10-23T00:42:29.943Z,95880.31
2022-10-23T00:43:32.950Z,95885.81
2022-10-23T00:45:11.649Z,95887.00
2022-10-23T00:46:13.447Z,95886.22
2022-10-23T00:47:16.459Z,95891.72
2022-10-23T00:48:18.918Z,95884.66
2022-10-23T00:49:23.883Z,95896.44
2022-10-23T00:50:27.748Z,95883.91
2022-10-23T00:51:34.599Z,95890.59
2022-10-23T00:52:42.608Z,95880.81
2022-10-23T00:53:52.781Z,95885.53
2022-10-23T00:54:58.966Z,95891.78
2022-10-23T00:56:03.183Z,95884.78
2022-10-23T00:57:07.833Z,95889.50
2022-10-23T00:58:10.773Z,95884.78
2022-10-23T00:59:13.134Z,95888.69
2022-10-23T01:00:19.808Z,95887.94
2022-10-23T01:01:23.592Z,95889.16
2022-10-23T01:02:26.667Z,95881.69
2022-10-23T01:03:30.262Z,95879.38
2022-10-23T01:04:34.998Z,95882.09
2022-10-23T01:06:59.660Z,95879.47
2022-10-23T01:08:08.761Z,95873.97
2022-10-23T01:09:17.203Z,95877.91
2022-10-23T01:10:27.010Z,95866.94
2022-10-23T01:11:36.101Z,95873.63
2022-10-23T01:12:45.609Z,95866.59
2022-10-23T01:14:00.629Z,95868.56
2022-10-23T01:15:12.243Z,95866.28
2022-10-23T01:16:18.802Z,95859.22
2022-10-23T01:17:31.035Z,95859.22
2022-10-23T01:18:40.444Z,95861.63
2022-10-23T01:19:56.391Z,95862.84
2022-10-23T01:21:02.067Z,95864.03
2022-10-23T01:22:13.824Z,95861.72
2022-10-23T01:23:52.554Z,95861.72
2022-10-23T01:24:59.526Z,95863.69
2022-10-23T01:26:22.734Z,95854.69
2022-10-23T01:27:31.802Z,95863.38
2022-10-23T01:28:44.771Z,95864.91
2022-10-23T01:29:52.954Z,95865.66
2022-10-23T01:31:05.055Z,95868.84
2022-10-23T01:32:16.033Z,95866.09
2022-10-23T01:33:24.830Z,95870.03
2022-10-23T01:34:32.791Z,95872.78
2022-10-23T01:35:37.850Z,95877.50
2022-10-23T01:36:44.206Z,95872.44
2022-10-23T01:37:49.883Z,95867.38
2022-10-23T01:38:56.968Z,95865.06
2022-10-23T01:40:03.625Z,95867.81
2022-10-23T01:41:12.256Z,95862.75
2022-10-23T01:42:19.384Z,95864.31
2022-10-23T01:43:28.676Z,95863.50
2022-10-23T01:44:37.853Z,95863.50
2022-10-23T01:45:45.372Z,95859.25
2022-10-23T01:46:53.861Z,95856.06
2022-10-23T01:47:57.668Z,95858.03
2022-10-23T01:49:02.483Z,95849.78
2022-10-23T01:50:08.049Z,95851.00
2022-10-23T01:51:13.491Z,95849.47
2022-10-23T01:52:18.590Z,95848.69
2022-10-23T01:53:25.984Z,95846.41
2022-10-23T01:54:34.861Z,95847.16
2022-10-23T01:55:38.983Z,95840.91
2022-10-23T01:56:47.785Z,95839.34
2022-10-23T01:57:50.468Z,95849.56
2022-10-23T01:58:57.821Z,95844.50
2022-10-23T02:00:05.772Z,95852.72
2022-10-23T02:01:15.968Z,95843.72
2022-10-23T02:02:25.213Z,95845.69
2022-10-23T02:03:33.191Z,95844.13
2022-10-23T02:04:38.685Z,95842.97
2022-10-23T02:05:41.568Z,95833.63
2022-10-23T02:06:43.563Z,95832.41
2022-10-23T02:07:47.096Z,95837.13
2022-10-23T02:08:49.359Z,95830.13
2022-10-23T02:09:52.411Z,95825.81
2022-10-23T02:11:00.751Z,95823.09
2022-10-23T02:12:08.622Z,95824.63
2022-10-23T02:13:16.591Z,95822.31
2022-10-23T02:14:31.099Z,95819.97
2022-10-23T02:15:36.134Z,95819.19
2022-10-23T02:16:43.924Z,95810.22
2022-10-23T02:17:55.476Z,95809.88
2022-10-23T02:19:09.240Z,95806.34
2022-10-23T02:20:20.182Z,95817.31
2022-10-23T02:21:30.488Z,95815.34
2022-10-23T02:22:39.042Z,95806.78
2022-10-23T02:23:53.741Z,95800.53
2022-10-23T02:25:04.957Z,95799.78
2022-10-23T02:26:12.991Z,95804.47
2022-10-23T02:27:19.750Z,95807.66
2022-10-23T02:28:33.755Z,95803.34
2022-10-23T02:29:43.335Z,95800.59
2022-10-23T02:30:48.223Z,95803.34
2022-10-23T02:31:50.461Z,95800.59
2022-10-23T02:32:57.134Z,95806.09
2022-10-23T02:33:59.189Z,95800.25
2022-10-23T02:35:02.277Z,95803.00
2022-10-23T02:36:04.737Z,95800.25
2022-10-23T02:37:08.160Z,95801.47
2022-10-23T02:38:29.445Z,95800.72
2022-10-23T02:39:32.704Z,95799.91
2022-10-23T02:40:39.027Z,95798.38
2022-10-23T02:41:48.000Z,95805.03
2022-10-23T02:42:55.095Z,95799.56
2022-10-23T02:44:16.414Z,95800.78
2022-10-23T02:45:29.231Z,95807.47
2022-10-23T02:46:43.685Z,95800.00
2022-10-23T02:47:52.737Z,95793.78
2022-10-23T02:49:04.554Z,95791.03
2022-10-23T02:50:13.177Z,95789.47
2022-10-23T02:51:23.384Z,95792.22
2022-10-23T02:52:33.558Z,95801.66
2022-10-23T02:53:43.137Z,95790.69
2022-10-23T02:55:00.559Z,95792.63
2022-10-23T02:56:11.791Z,95791.50
2022-10-23T02:57:21.314Z,95794.72
2022-10-23T02:58:30.746Z,95791.97
2022-10-23T02:59:39.393Z,95793.91
2022-10-23T03:00:49.181Z,95793.91
2022-10-23T03:01:57.157Z,95791.63
2022-10-23T03:03:03.375Z,95788.13
2022-10-23T03:04:09.779Z,95795.53
2022-10-23T03:05:24.899Z,95782.28
2022-10-23T03:06:26.878Z,95786.56
2022-10-23T03:07:29.896Z,95786.22
2022-10-23T03:08:44.778Z,95786.22
2022-10-23T03:09:46.852Z,95784.69
2022-10-23T03:10:51.333Z,95784.69
2022-10-23T03:11:55.147Z,95784.69
2022-10-23T03:12:58.318Z,95780.38
2022-10-23T03:14:00.780Z,95778.44
2022-10-23T03:15:03.656Z,95777.66
2022-10-23T03:16:08.051Z,95771.41
2022-10-23T03:17:10.240Z,95776.13
2022-10-23T03:18:13.159Z,95777.66
2022-10-23T03:19:19.273Z,95774.56
2022-10-23T03:20:22.046Z,95767.53
2022-10-23T03:21:24.103Z,95767.53
2022-10-23T03:22:29.089Z,95766.78
2022-10-23T03:23:31.235Z,95766.03
2022-10-23T03:24:34.542Z,95767.19
2022-10-23T03:25:36.346Z,95760.53
2022-10-23T03:26:39.172Z,95766.03
2022-10-23T03:27:43.277Z,95771.16
2022-10-23T03:28:50.707Z,95782.09
2022-10-23T03:29:55.382Z,95776.28
2022-10-23T03:30:58.359Z,95775.53
2022-10-23T03:32:03.413Z,95777.47
2022-10-23T03:33:05.242Z,95773.19
2022-10-23T03:34:11.555Z,95779.84
2022-10-23T03:35:15.564Z,95777.13
2022-10-23T03:36:19.820Z,95775.94
2022-10-23T03:37:22.062Z,95779.84
2022-10-23T03:38:26.294Z,95775.59
2022-10-23T03:39:29.473Z,95766.59
2022-10-23T03:40:32.154Z,95771.31
2022-10-23T03:41:35.025Z,95770.09
2022-10-23T03:42:36.886Z,95764.63
2022-10-23T03:43:39.742Z,95775.59
2022-10-23T03:44:41.771Z,95775.59
2022-10-23T03:45:44.604Z,95780.31
2022-10-23T03:46:46.392Z,95771.31
2022-10-23T03:47:51.680Z,95775.25
2022-10-23T03:48:53.657Z,95775.66
2022-10-23T03:49:56.503Z,95774.88
2022-10-23T03:50:58.442Z,95772.59
2022-10-23T03:52:01.309Z,95772.25
2022-10-23T03:53:03.154Z,95765.97
2022-10-23T03:54:06.140Z,95774.19
2022-10-23T03:55:08.815Z,95767.94
2022-10-23T03:56:12.601Z,95768.72
2022-10-23T03:57:14.895Z,95772.66
2022-10-23T03:58:17.817Z,95769.94
2022-10-23T03:59:20.795Z,95766.84
2022-10-23T04:00:24.365Z,95765.66
2022-10-23T04:01:26.538Z,95766.06
2022-10-23T04:02:29.522Z,95751.63
2022-10-23T04:03:33.143Z,95752.81
2022-10-23T04:04:36.041Z,95754.78
2022-10-23T04:05:37.908Z,95762.22
2022-10-23T04:06:41.290Z,95754.78
2022-10-23T04:07:43.310Z,95760.25
2022-10-23T04:08:46.693Z,95763.41
2022-10-23T04:09:51.069Z,95763.41
2022-10-23T04:10:55.194Z,95767.34
2022-10-23T04:12:09.653Z,95765.78
2022-10-23T04:13:11.470Z,95761.88
2022-10-23T04:14:15.027Z,95761.09
2022-10-23T04:15:17.129Z,95759.56
2022-10-23T04:16:22.120Z,95762.72
2022-10-23T04:17:24.989Z,95764.25
2022-10-23T04:18:27.044Z,95760.00
2022-10-23T04:19:31.363Z,95761.94
2022-10-23T04:20:33.199Z,95772.13
2022-10-23T04:21:38.530Z,95769.38
2022-10-23T04:22:41.638Z,95770.16
2022-10-23T04:23:45.720Z,95766.66
2022-10-23T04:24:51.347Z,95772.91
2022-10-23T04:25:56.469Z,95770.59
2022-10-23T04:27:00.862Z,95766.66
2022-10-23T04:28:04.712Z,95774.09
2022-10-23T04:29:12.936Z,95772.13
2022-10-23T04:30:15.359Z,95765.13
2022-10-23T04:31:18.258Z,95770.59
2022-10-23T04:32:20.242Z,95769.81
2022-10-23T04:33:24.735Z,95769.03
2022-10-23T04:34:27.195Z,95770.25
2022-10-23T04:35:31.919Z,95766.75
2022-10-23T04:36:33.798Z,95771.44
2022-10-23T04:37:44.989Z,95768.69
2022-10-23T04:38:47.895Z,95769.91
2022-10-23T04:39:50.721Z,95769.13
2022-10-23T04:40:52.522Z,95765.59
2022-10-23T04:41:58.853Z,95766.81
2022-10-23T04:43:00.832Z,95765.28
2022-10-23T04:44:07.826Z,95762.53
2022-10-23T04:45:13.286Z,95759.81
2022-10-23T04:46:18.626Z,95759.81
2022-10-23T04:47:22.653Z,95755.50
2022-10-23T04:48:34.350Z,95763.72
2022-10-23T04:49:54.939Z,95753.97
2022-10-23T04:51:12.880Z,95748.91
2022-10-23T04:52:27.982Z,95748.91
2022-10-23T04:53:48.573Z,95752.44
2022-10-23T04:55:10.686Z,95745.41
2022-10-23T04:56:28.631Z,95745.84
2022-10-23T04:57:44.240Z,95734.88
2022-10-23T04:58:47.162Z,95738.03
2022-10-23T04:59:50.395Z,95739.59
2022-10-23T05:00:53.681Z,95733.34
2022-10-23T05:02:02.172Z,95736.84
2022-10-23T05:03:04.247Z,95730.19
2022-10-23T05:04:14.709Z,95738.84
2022-10-23T05:05:35.080Z,95733.34
2022-10-23T05:06:44.273Z,95742.34
2022-10-23T05:08:22.510Z,95742.75
2022-10-23T05:09:48.022Z,95736.50
2022-10-23T05:10:57.095Z,95734.97
2022-10-23T05:11:59.883Z,95734.19
2022-10-23T05:13:02.901Z,95738.91
2022-10-23T05:14:05.741Z,95733.41
2022-10-23T05:15:08.131Z,95735.81
2022-10-23T05:16:11.213Z,95733.06
2022-10-23T05:17:19.087Z,95723.34
2022-10-23T05:18:25.745Z,95738.19
2022-10-23T05:19:35.713Z,95732.72
2022-10-23T05:20:40.785Z,95731.97
2022-10-23T05:21:48.175Z,95729.22
2022-10-23T05:22:53.013Z,95729.22
2022-10-23T05:25:08.433Z,95731.19
2022-10-23T05:26:11.271Z,95723.41
2022-10-23T05:27:13.947Z,95731.59
2022-10-23T05:28:17.958Z,95730.84
2022-10-23T05:29:20.216Z,95722.63
2022-10-23T05:30:23.139Z,95732.38
2022-10-23T05:31:25.668Z,95729.31
2022-10-23T05:32:34.323Z,95733.59
2022-10-23T05:33:37.359Z,95729.31
2022-10-23T05:34:42.201Z,95729.31
2022-10-23T05:35:45.362Z,95725.03
2022-10-23T05:36:52.171Z,95726.22
2022-10-23T05:37:55.485Z,95723.50
2022-10-23T05:39:02.281Z,95720.41
2022-10-23T05:40:04.936Z,95727.41
2022-10-23T05:41:10.191Z,95730.16
2022-10-23T05:42:12.692Z,95730.59
2022-10-23T05:43:16.753Z,95738.00
2022-10-23T05:44:28.013Z,95743.47
2022-10-23T05:45:43.902Z,95732.53
2022-10-23T05:47:02.146Z,95739.22
2022-10-23T05:48:34.286Z,95736.47
2022-10-23T05:49:56.797Z,95728.25
2022-10-23T05:51:23.261Z,95729.44
2022-10-23T05:52:56.847Z,95729.88
2022-10-23T05:54:09.634Z,95725.59
2022-10-23T05:55:21.312Z,95727.56
2022-10-23T05:56:51.847Z,95733.81
2022-10-23T05:58:02.888Z,95733.81
2022-10-23T05:59:26.108Z,95728.78
2022-10-23T06:00:47.597Z,95731.50
2022-10-23T06:02:09.409Z,95730.72
2022-10-23T06:03:24.382Z,95738.16
2022-10-23T06:04:26.605Z,95736.63
2022-10-23T06:05:54.987Z,95740.13
2022-10-23T06:06:58.878Z,95739.38
2022-10-23T06:08:03.287Z,95739.38
2022-10-23T06:09:05.341Z,95737.81
2022-10-23T06:10:13.847Z,95737.81
2022-10-23T06:11:19.412Z,95746.03
2022-10-23T06:12:32.798Z,95740.53
2022-10-23T06:13:34.934Z,95748.75
2022-10-23T06:14:38.883Z,95741.34
2022-10-23T06:15:40.954Z,95742.09
2022-10-23T06:17:03.319Z,95740.91
2022-10-23T06:18:05.860Z,95740.13
2022-10-23T06:19:12.139Z,95736.97
2022-10-23T06:20:16.893Z,95740.06
2022-10-23T06:21:26.762Z,95736.13
2022-10-23T06:22:28.902Z,95736.47
2022-10-23T06:23:47.150Z,95734.44
2022-10-23T06:25:05.491Z,95737.09
2022-10-23T06:26:10.796Z,95731.97
2022-10-23T06:27:29.190Z,95730.34
2022-10-23T06:28:31.129Z,95723.69
2022-10-23T06:29:35.041Z,95726.41
2022-10-23T06:31:46.933Z,95727.09
2022-10-23T06:32:49.086Z,95724.69
2022-10-23T06:33:52.286Z,95720.03
2022-10-23T06:34:54.091Z,95725.06
2022-10-23T06:35:57.297Z,95719.16
2022-10-23T06:37:00.188Z,95726.97
2022-10-23T06:38:36.507Z,95723.00
2022-10-23T06:39:40.579Z,95730.00
2022-10-23T06:40:53.800Z,95730.81
2022-10-23T06:42:02.400Z,95728.06
2022-10-23T06:43:31.706Z,95732.75
2022-10-23T06:44:52.450Z,95727.63
2022-10-23T06:46:13.001Z,95733.09
2022-10-23T06:47:42.403Z,95737.03
2022-10-23T06:49:11.143Z,95737.47
2022-10-23T06:50:21.974Z,95744.91
2022-10-23T06:51:29.496Z,95744.56
2022-10-23T06:52:46.507Z,95741.81
2022-10-23T06:53:52.466Z,95747.72
2022-10-23T06:55:16.008Z,95755.94
2022-10-23T06:56:18.781Z,95752.78
2022-10-23T06:57:20.940Z,95754.34
2022-10-23T06:58:25.842Z,95754.34
2022-10-23T06:59:39.576Z,95757.06
2022-10-23T07:00:44.434Z,95755.09
2022-10-23T07:01:48.001Z,95751.91
2022-10-23T07:02:51.050Z,95756.63
2022-10-23T07:03:53.884Z,95761.69
2022-10-23T07:05:00.665Z,95753.47
2022-10-23T07:06:05.310Z,95757.75
2022-10-23T07:07:07.454Z,95754.25
2022-10-23T07:08:19.171Z,95748.75
2022-10-23T07:09:24.095Z,95746.38
2022-10-23T07:10:30.954Z,95747.91
2022-10-23T07:11:35.353Z,95743.22
2022-10-23T07:12:38.235Z,95742.34
2022-10-23T07:14:02.144Z,95741.50
2022-10-23T07:15:04.664Z,95739.88
2022-10-23T07:16:12.822Z,95734.66
2022-10-23T07:17:15.154Z,95738.09
2022-10-23T07:18:19.427Z,95744.25
2022-10-23T07:19:44.181Z,95731.59
2022-10-23T07:20:49.485Z,95722.19
2022-10-23T07:21:51.764Z,95722.84
2022-10-23T07:23:17.324Z,95711.72
2022-10-23T07:24:21.252Z,95727.31
2022-10-23T07:25:23.741Z,95726.56
2022-10-23T07:26:29.325Z,95720.28
2022-10-23T07:27:36.568Z,95724.22
2022-10-23T07:28:41.298Z,95728.50
2022-10-23T07:29:43.409Z,95730.41
2022-10-23T07:30:46.339Z,95742.03
2022-10-23T07:31:48.710Z,95739.63
2022-10-23T07:33:12.561Z,95737.56
2022-10-23T07:34:29.412Z,95739.13
2022-10-23T07:35:58.231Z,95742.63
2022-10-23T07:37:03.453Z,95744.16
2022-10-23T07:38:06.588Z,95758.97
2022-10-23T07:39:14.019Z,95746.84
2022-10-23T07:40:22.392Z,95749.91
2022-10-23T07:41:30.773Z,95748.69
2022-10-23T07:42:32.890Z,95750.28
2022-10-23T07:43:35.871Z,95747.91
2022-10-23T07:44:38.157Z,95743.94
2022-10-23T07:45:41.214Z,95739.97
2022-10-23T07:46:51.481Z,95740.78
2022-10-23T07:47:54.331Z,95744.28
2022-10-23T07:49:00.226Z,95737.59
2022-10-23T07:50:04.104Z,95742.22
2022-10-23T07:51:10.650Z,95734.75
2022-10-23T07:52:18.087Z,95739.81
2022-10-23T07:53:42.827Z,95731.91
2022-10-23T07:54:53.731Z,95736.09
2022-10-23T07:55:58.616Z,95723.19
2022-10-23T07:57:07.342Z,95730.53
2022-10-23T07:58:17.464Z,95730.88
2022-10-23T07:59:22.995Z,95737.81
2022-10-23T08:00:28.841Z,95736.19
2022-10-23T08:01:45.513Z,95740.03
2022-10-23T08:02:47.714Z,95737.63
2022-10-23T08:03:50.913Z,95728.97
2022-10-23T08:04:53.268Z,95730.84
2022-10-23T08:06:14.463Z,95735.13
2022-10-23T08:07:16.557Z,95724.94
2022-10-23T08:08:21.703Z,95730.41
2022-10-23T08:09:24.842Z,95730.84
2022-10-23T08:10:27.914Z,95732.06
2022-10-23T08:11:35.390Z,95737.53
2022-10-23T08:12:41.823Z,95735.22
2022-10-23T08:13:44.248Z,95728.97
2022-10-23T08:14:47.635Z,95726.56
2022-10-23T08:15:51.614Z,95729.75
2022-10-23T08:17:26.264Z,95728.97
2022-10-23T08:18:42.630Z,95724.25
2022-10-23T08:19:47.123Z,95734.47
2022-10-23T08:20:52.292Z,95727.41
2022-10-23T08:21:57.159Z,95727.06
2022-10-23T08:22:59.042Z,95729.81
2022-10-23T08:24:03.346Z,95725.88
2022-10-23T08:25:06.638Z,95724.69
2022-10-23T08:26:10.642Z,95730.50
2022-10-23T08:27:12.515Z,95725.78
2022-10-23T08:28:21.795Z,95732.06
2022-10-23T08:29:31.165Z,95722.63
2022-10-23T08:30:33.549Z,95727.34
2022-10-23T08:31:36.486Z,95736.66
2022-10-23T08:33:02.134Z,95726.88
2022-10-23T08:34:07.754Z,95725.69
2022-10-23T08:35:11.716Z,95721.75
2022-10-23T08:36:18.623Z,95720.97
2022-10-23T08:37:21.621Z,95720.56
2022-10-23T08:38:23.641Z,95722.53
2022-10-23T08:39:26.816Z,95719.00
2022-10-23T08:41:02.177Z,95712.31
2022-10-23T08:42:26.863Z,95725.59
2022-10-23T08:43:38.466Z,95719.34
2022-10-23T08:45:03.291Z,95709.13
2022-10-23T08:46:13.350Z,95721.66
2022-10-23T08:47:40.306Z,95713.00
2022-10-23T08:49:41.003Z,95710.56
2022-10-23T08:50:47.468Z,95700.38
2022-10-23T08:51:53.422Z,95702.69
2022-10-23T08:53:00.070Z,95703.47
2022-10-23T08:54:08.947Z,95709.72
2022-10-23T08:55:18.450Z,95694.78
2022-10-23T08:56:27.025Z,95707.31
2022-10-23T08:57:37.756Z,95702.59
2022-10-23T09:00:02.154Z,95695.81
2022-10-23T09:01:29.503Z,95691.84
2022-10-23T09:02:38.413Z,95690.66
2022-10-23T09:03:40.324Z,95691.41
2022-10-23T09:04:46.773Z,95693.72
2022-10-23T09:06:05.846Z,95697.56
2022-10-23T09:07:19.627Z,95694.38
2022-10-23T09:08:34.715Z,95685.28
2022-10-23T09:09:52.161Z,95683.31
2022-10-23T09:11:04.318Z,95691.44
2022-10-23T09:12:11.632Z,95687.16
2022-10-23T09:14:00.835Z,95694.97
2022-10-23T09:15:14.819Z,95691.00
2022-10-23T09:16:34.120Z,95686.28
2022-10-23T09:17:40.961Z,95688.59
2022-10-23T09:18:43.726Z,95688.16
2022-10-23T09:19:47.425Z,95685.41
2022-10-23T09:20:52.341Z,95699.13
2022-10-23T09:21:57.303Z,95681.47
2022-10-23T09:23:03.271Z,95688.50
2022-10-23T09:24:05.622Z,95691.59
2022-10-23T09:25:11.705Z,95687.28
2022-10-23T09:26:16.482Z,95689.16
2022-10-23T09:27:19.346Z,95694.63
2022-10-23T09:28:23.122Z,95689.94
2022-10-23T09:29:28.432Z,95685.53
2022-10-23T09:30:35.733Z,95687.84
2022-10-23T09:31:48.789Z,95688.97
2022-10-23T09:32:51.821Z,95688.06
2022-10-23T09:33:55.076Z,95690.38
2022-10-23T09:34:57.942Z,95687.19
2022-10-23T09:36:03.330Z,95686.00
2022-10-23T09:37:25.027Z,95679.63
2022-10-23T09:38:29.838Z,95686.22
2022-10-23T09:39:35.260Z,95681.81
2022-10-23T09:40:42.043Z,95674.34
2022-10-23T09:41:43.929Z,95680.50
2022-10-23T09:42:59.332Z,95674.16
2022-10-23T09:44:02.898Z,95669.41
2022-10-23T09:45:22.960Z,95664.69
2022-10-23T09:46:37.418Z,95668.84
2022-10-23T09:47:40.714Z,95666.13
2022-10-23T09:48:43.723Z,95677.09
2022-10-23T09:49:48.428Z,95668.84
2022-10-23T09:50:54.864Z,95663.69
2022-10-23T09:52:03.295Z,95669.53
2022-10-23T09:53:05.172Z,95661.63
2022-10-23T09:54:16.857Z,95657.66
2022-10-23T09:55:21.341Z,95660.41
2022-10-23T09:56:29.225Z,95655.91
2022-10-23T09:57:36.928Z,95656.59
2022-10-23T09:58:44.230Z,95656.91
2022-10-23T09:59:52.672Z,95656.44
2022-10-23T10:00:55.490Z,95659.97
2022-10-23T10:02:27.276Z,95656.34
2022-10-23T10:03:38.571Z,95656.56
2022-10-23T10:04:45.266Z,95655.78
2022-10-23T10:05:56.565Z,95652.59
2022-10-23T10:06:59.402Z,95653.03
2022-10-23T10:08:13.482Z,95662.81
2022-10-23T10:09:18.030Z,95655.78
2022-10-23T10:10:19.959Z,95662.81
2022-10-23T10:11:31.604Z,95658.88
2022-10-23T10:12:50.617Z,95657.66
2022-10-23T10:14:19.261Z,95664.34
2022-10-23T10:15:29.935Z,95664.34
2022-10-23T10:16:42.689Z,95661.63
2022-10-23T10:18:03.378Z,95654.13
2022-10-23T10:19:16.597Z,95656.00
2022-10-23T10:20:44.485Z,95662.78
2022-10-23T10:21:56.662Z,95666.19
2022-10-23T10:23:05.134Z,95657.50
2022-10-23T10:24:17.983Z,95653.56
2022-10-23T10:25:26.308Z,95649.56
2022-10-23T10:26:40.228Z,95650.66
2022-10-23T10:27:53.600Z,95643.97
2022-10-23T10:29:09.593Z,95645.81
2022-10-23T10:30:16.916Z,95643.06
2022-10-23T10:31:24.562Z,95649.34
2022-10-23T10:32:36.302Z,95643.84
2022-10-23T10:33:56.165Z,95643.84
2022-10-23T10:35:08.348Z,95641.41
2022-10-23T10:36:22.007Z,95635.16
2022-10-23T10:37:31.750Z,95634.25
2022-10-23T10:38:47.387Z,95625.56
2022-10-23T10:39:58.538Z,95631.41
2022-10-23T10:41:23.515Z,95624.38
2022-10-23T10:42:47.799Z,95625.47
2022-10-23T10:44:02.295Z,95622.25
2022-10-23T10:45:19.271Z,95614.78
2022-10-23T10:46:29.960Z,95612.81
2022-10-23T10:47:38.920Z,95616.75
2022-10-23T10:48:52.809Z,95615.88
2022-10-23T10:50:21.931Z,95611.78
2022-10-23T10:51:57.509Z,95611.72
2022-10-23T10:53:08.805Z,95611.94
2022-10-23T10:54:22.795Z,95604.75
2022-10-23T10:55:30.213Z,95602.34
2022-10-23T10:56:38.191Z,95600.03
2022-10-23T10:57:44.283Z,95598.34
2022-10-23T10:58:51.556Z,95597.00
2022-10-23T10:59:57.458Z,95602.06
2022-10-23T11:01:03.473Z,95589.84
2022-10-23T11:02:20.178Z,95589.53
2022-10-23T11:03:39.163Z,95590.75
2022-10-23T11:04:48.905Z,95589.53
2022-10-23T11:05:54.454Z,95586.22
2022-10-23T11:06:57.735Z,95589.56
2022-10-23T11:08:06.967Z,95587.47
2022-10-23T11:09:20.687Z,95588.44
2022-10-23T11:10:24.166Z,95588.75
2022-10-23T11:11:32.444Z,95579.25
2022-10-23T11:12:34.342Z,95580.53
2022-10-23T11:13:40.347Z,95587.56
2022-10-23T11:14:42.856Z,95579.53
2022-10-23T11:15:46.108Z,95581.81
2022-10-23T11:16:52.077Z,95578.72
2022-10-23T11:17:59.552Z,95577.84
2022-10-23T11:19:11.332Z,95571.13
2022-10-23T11:20:29.763Z,95576.63
2022-10-23T11:21:39.114Z,95575.09
2022-10-23T11:22:51.366Z,95575.88
2022-10-23T11:24:42.165Z,95566.09
2022-10-23T11:25:56.407Z,95565.94
2022-10-23T11:27:14.550Z,95574.19
2022-10-23T11:28:29.309Z,95571.44
2022-10-23T11:29:48.174Z,95570.69
2022-10-23T11:31:11.530Z,95576.94
2022-10-23T11:32:47.439Z,95579.38
2022-10-23T11:34:06.622Z,95565.63
2022-10-23T11:35:21.158Z,95569.13
2022-10-23T11:36:42.945Z,95565.94
2022-10-23T11:37:46.098Z,95562.75
2022-10-23T11:38:53.753Z,95558.75
2022-10-23T11:40:03.096Z,95559.50
2022-10-23T11:41:19.922Z,95558.63
2022-10-23T11:42:33.105Z,95556.50
2022-10-23T11:43:48.647Z,95552.84
2022-10-23T11:44:52.213Z,95551.16
2022-10-23T11:45:55.093Z,95546.13
2022-10-23T11:47:03.375Z,95546.31
2022-10-23T11:48:06.757Z,95548.91
2022-10-23T11:49:22.054Z,95539.00
2022-10-23T11:50:28.190Z,95549.56
2022-10-23T11:51:33.492Z,95531.97
2022-10-23T11:52:50.411Z,95539.16
2022-10-23T11:54:24.425Z,95543.91
2022-10-23T11:55:29.047Z,95535.94
2022-10-23T11:56:34.137Z,95538.22
2022-10-23T11:57:35.997Z,95542.84
2022-10-23T11:58:43.926Z,95542.69
2022-10-23T11:59:54.950Z,95537.16
2022-10-23T12:01:03.358Z,95533.22
2022-10-23T12:02:25.335Z,95535.19
2022-10-23T12:03:32.444Z,95533.66
2022-10-23T12:04:42.111Z,95530.16
2022-10-23T12:05:45.640Z,95527.38
2022-10-23T12:06:52.189Z,95537.34
2022-10-23T12:07:59.048Z,95534.28
2022-10-23T12:09:06.297Z,95539.47
2022-10-23T12:10:21.812Z,95533.34
2022-10-23T12:11:28.421Z,95529.97
2022-10-23T12:12:35.134Z,95531.53
2022-10-23T12:13:46.245Z,95521.91
2022-10-23T12:14:50.810Z,95524.16
2022-10-23T12:15:57.157Z,95525.25
2022-10-23T12:17:19.646Z,95527.56
2022-10-23T12:18:23.165Z,95520.84
2022-10-23T12:19:26.726Z,95512.84
2022-10-23T12:20:39.256Z,95515.16
2022-10-23T12:21:41.123Z,95514.41
2022-10-23T12:23:04.102Z,95516.41
2022-10-23T12:24:17.677Z,95511.63
2022-10-23T12:25:32.349Z,95512.41
2022-10-23T12:26:57.146Z,95508.88
2022-10-23T12:28:07.656Z,95503.50
2022-10-23T12:29:18.580Z,95506.75
2022-10-23T12:30:23.951Z,95503.69
2022-10-23T12:31:39.053Z,95507.63
2022-10-23T12:33:05.624Z,95499.69
2022-10-23T12:34:22.185Z,95502.13
2022-10-23T12:35:48.948Z,95501.53
2022-10-23T12:37:05.664Z,95507.19
2022-10-23T12:38:15.881Z,95495.72
2022-10-23T12:39:26.789Z,95499.69
2022-10-23T12:40:30.180Z,95498.19
2022-10-23T12:41:35.798Z,95494.34
2022-10-23T12:42:38.374Z,95495.41
2022-10-23T12:43:43.307Z,95492.66
2022-10-23T12:44:45.115Z,95491.91
2022-10-23T12:45:48.476Z,95491.13
2022-10-23T12:46:54.289Z,95493.41
2022-10-23T12:47:57.573Z,95496.94
2022-10-23T12:49:03.901Z,95489.91
2022-10-23T12:50:17.603Z,95482.53
2022-10-23T12:51:24.927Z,95494.81
2022-10-23T12:52:27.730Z,95489.28
2022-10-23T12:53:31.017Z,95487.16
2022-10-23T12:54:40.631Z,95483.91
2022-10-23T12:55:49.948Z,95486.22
2022-10-23T12:56:53.191Z,95485.91
2022-10-23T12:57:55.859Z,95482.81
2022-10-23T12:59:02.144Z,95490.34
2022-10-23T13:00:10.364Z,95481.94
2022-10-23T13:01:24.625Z,95483.63
2022-10-23T13:02:28.314Z,95485.59
2022-10-23T13:03:33.634Z,95477.31
2022-10-23T13:04:36.885Z,95475.78
2022-10-23T13:05:39.847Z,95468.47
2022-10-23T13:06:42.055Z,95473.78
2022-10-23T13:07:49.823Z,95464.13
2022-10-23T13:09:00.944Z,95461.03
2022-10-23T13:10:25.941Z,95465.97
2022-10-23T13:11:37.603Z,95465.34
2022-10-23T13:12:47.230Z,95469.31
2022-10-23T13:13:50.468Z,95468.56
2022-10-23T13:15:00.505Z,95467.50
2022-10-23T13:16:15.531Z,95473.31
2022-10-23T13:17:17.269Z,95477.28
2022-10-23T13:18:20.118Z,95470.25
2022-10-23T13:19:23.897Z,95476.38
2022-10-23T13:20:29.103Z,95465.81
2022-10-23T13:21:32.411Z,95474.53
2022-10-23T13:22:35.328Z,95461.03
2022-10-23T13:23:41.822Z,95467.16
2022-10-23T13:24:46.465Z,95462.22
2022-10-23T13:25:55.734Z,95464.06
2022-10-23T13:26:59.599Z,95460.06
2022-10-23T13:28:21.694Z,95454.41
2022-10-23T13:29:27.813Z,95455.66
2022-10-23T13:30:32.386Z,95449.53